Laguna Beach, Missouri
Current Conditions -  °F | °C
As of 7:35 AM on Wednesday 22 Oct 2014 (Local Time) from KAIZ Reporting Station
Clear Clear  
Wind Chill: 42°   Ceiling: Unl
Heat Index: 45°   Visibility: 10mi
Dew Point: 39°   Wind: 5mph
Humidity: 81%   Direction: 90°E
Pressure: 30.24"   Gusts: NA
Location:  38.1262°N, 92.6898°W
Report Text: KAIZ 221235Z AUTO 09004KT 10SM CLR 07/04 A3024 RMK AO1
Loading
Personal Weather Stations






























Interactive Weather Map
Tropical Storm Tracking
New forecast layout! Learn more

10-Day Weather Forecast

Advertisements
Track Severe Weather on mobile